sensor_id;sensor_type;location;lat;lon;timestamp;temperature;humidity
33811;DHT22;20119;48.334;16.206;2022-07-22T00:03:59;23.10;99.90
33811;DHT22;20119;48.334;16.206;2022-07-22T00:06:28;23.00;99.90
33811;DHT22;20119;48.334;16.206;2022-07-22T00:08:55;22.90;99.90
33811;DHT22;20119;48.334;16.206;2022-07-22T00:11:24;22.90;99.90
33811;DHT22;20119;48.334;16.206;2022-07-22T00:13:51;22.90;99.90
33811;DHT22;20119;48.334;16.206;2022-07-22T00:16:18;22.80;99.90
33811;DHT22;20119;48.334;16.206;2022-07-22T00:18:47;22.90;99.90
33811;DHT22;20119;48.334;16.206;2022-07-22T00:21:17;22.70;99.90
33811;DHT22;20119;48.334;16.206;2022-07-22T00:23:44;22.70;99.90
33811;DHT22;20119;48.334;16.206;2022-07-22T00:36:34;22.40;99.90
33811;DHT22;20119;48.334;16.206;2022-07-22T00:39:04;22.40;99.90
33811;DHT22;20119;48.334;16.206;2022-07-22T00:41:32;22.40;99.90
33811;DHT22;20119;48.334;16.206;2022-07-22T00:46:37;22.30;99.90
33811;DHT22;20119;48.334;16.206;2022-07-22T00:49:05;22.20;99.90
33811;DHT22;20119;48.334;16.206;2022-07-22T00:54:10;22.10;99.90
33811;DHT22;20119;48.334;16.206;2022-07-22T01:06:59;21.90;99.90
33811;DHT22;20119;48.334;16.206;2022-07-22T01:09:31;21.90;99.90
33811;DHT22;20119;48.334;16.206;2022-07-22T01:12:00;21.70;99.90
33811;DHT22;20119;48.334;16.206;2022-07-22T01:14:29;21.60;99.90
33811;DHT22;20119;48.334;16.206;2022-07-22T01:16:56;21.60;99.90
33811;DHT22;20119;48.334;16.206;2022-07-22T01:19:24;21.50;99.90
33811;DHT22;20119;48.334;16.206;2022-07-22T01:34:50;21.20;99.90
33811;DHT22;20119;48.334;16.206;2022-07-22T01:37:18;21.20;99.90
33811;DHT22;20119;48.334;16.206;2022-07-22T01:50:09;21.10;99.90
33811;DHT22;20119;48.334;16.206;2022-07-22T01:52:39;21.10;99.90
33811;DHT22;20119;48.334;16.206;2022-07-22T01:55:08;21.00;99.90
33811;DHT22;20119;48.334;16.206;2022-07-22T01:57:37;21.00;99.90
33811;DHT22;20119;48.334;16.206;2022-07-22T02:02:41;21.00;99.90
33811;DHT22;20119;48.334;16.206;2022-07-22T02:10:34;21.00;99.90
33811;DHT22;20119;48.334;16.206;2022-07-22T02:13:02;20.90;99.90
33811;DHT22;20119;48.334;16.206;2022-07-22T02:15:33;20.80;99.90
33811;DHT22;20119;48.334;16.206;2022-07-22T02:18:00;20.80;99.90
33811;DHT22;20119;48.334;16.206;2022-07-22T02:20:28;20.80;99.90
33811;DHT22;20119;48.334;16.206;2022-07-22T02:22:57;20.70;99.90
33811;DHT22;20119;48.334;16.206;2022-07-22T02:25:26;20.70;99.90
33811;DHT22;20119;48.334;16.206;2022-07-22T02:27:57;20.70;99.90
33811;DHT22;20119;48.334;16.206;2022-07-22T02:30:24;20.70;99.90
33811;DHT22;20119;48.334;16.206;2022-07-22T02:32:53;20.70;99.90
33811;DHT22;20119;48.334;16.206;2022-07-22T02:48:20;20.60;99.90
33811;DHT22;20119;48.334;16.206;2022-07-22T02:53:23;20.50;99.90
33811;DHT22;20119;48.334;16.206;2022-07-22T02:55:51;20.40;99.90
33811;DHT22;20119;48.334;16.206;2022-07-22T02:58:19;20.40;99.90
33811;DHT22;20119;48.334;16.206;2022-07-22T03:00:46;20.30;99.90
33811;DHT22;20119;48.334;16.206;2022-07-22T03:03:14;20.30;99.90
33811;DHT22;20119;48.334;16.206;2022-07-22T03:05:59;20.20;99.90
33811;DHT22;20119;48.334;16.206;2022-07-22T03:08:26;20.20;99.90
33811;DHT22;20119;48.334;16.206;2022-07-22T03:10:53;20.20;99.90
33811;DHT22;20119;48.334;16.206;2022-07-22T03:13:20;20.20;99.90
33811;DHT22;20119;48.334;16.206;2022-07-22T03:15:47;20.10;99.90
33811;DHT22;20119;48.334;16.206;2022-07-22T03:18:15;20.10;99.90
33811;DHT22;20119;48.334;16.206;2022-07-22T03:20:42;20.00;99.90
33811;DHT22;20119;48.334;16.206;2022-07-22T03:23:11;20.00;99.90
33811;DHT22;20119;48.334;16.206;2022-07-22T03:25:39;19.90;99.90
33811;DHT22;20119;48.334;16.206;2022-07-22T03:28:13;19.90;99.90
33811;DHT22;20119;48.334;16.206;2022-07-22T03:30:41;19.90;99.90
33811;DHT22;20119;48.334;16.206;2022-07-22T03:33:09;19.80;99.90
33811;DHT22;20119;48.334;16.206;2022-07-22T03:35:38;19.80;99.90
33811;DHT22;20119;48.334;16.206;2022-07-22T03:40:34;19.60;99.90
33811;DHT22;20119;48.334;16.206;2022-07-22T03:43:01;19.60;99.90
33811;DHT22;20119;48.334;16.206;2022-07-22T03:45:28;19.60;99.90
33811;DHT22;20119;48.334;16.206;2022-07-22T03:47:57;19.60;99.90
33811;DHT22;20119;48.334;16.206;2022-07-22T03:50:25;19.60;99.90
33811;DHT22;20119;48.334;16.206;2022-07-22T03:52:53;19.70;99.90
33811;DHT22;20119;48.334;16.206;2022-07-22T03:55:21;19.80;99.90
33811;DHT22;20119;48.334;16.206;2022-07-22T03:57:50;19.90;99.90
33811;DHT22;20119;48.334;16.206;2022-07-22T04:00:18;19.90;99.90
33811;DHT22;20119;48.334;16.206;2022-07-22T04:02:46;20.00;99.90
33811;DHT22;20119;48.334;16.206;2022-07-22T04:05:14;20.10;99.90
33811;DHT22;20119;48.334;16.206;2022-07-22T04:07:43;20.40;99.90
33811;DHT22;20119;48.334;16.206;2022-07-22T04:10:12;20.80;99.90
33811;DHT22;20119;48.334;16.206;2022-07-22T04:12:41;21.10;99.90
33811;DHT22;20119;48.334;16.206;2022-07-22T04:15:11;21.50;99.90
33811;DHT22;20119;48.334;16.206;2022-07-22T04:17:39;21.70;99.90
33811;DHT22;20119;48.334;16.206;2022-07-22T04:20:07;22.00;99.90
33811;DHT22;20119;48.334;16.206;2022-07-22T04:22:35;22.40;99.90
33811;DHT22;20119;48.334;16.206;2022-07-22T04:25:07;22.60;99.90
33811;DHT22;20119;48.334;16.206;2022-07-22T04:27:35;22.60;99.90
33811;DHT22;20119;48.334;16.206;2022-07-22T04:30:04;22.80;99.90
33811;DHT22;20119;48.334;16.206;2022-07-22T04:32:33;23.00;99.90
33811;DHT22;20119;48.334;16.206;2022-07-22T04:35:02;23.20;99.90
33811;DHT22;20119;48.334;16.206;2022-07-22T04:37:30;23.60;99.90
33811;DHT22;20119;48.334;16.206;2022-07-22T04:39:58;24.00;99.90
33811;DHT22;20119;48.334;16.206;2022-07-22T04:42:25;24.30;99.90
33811;DHT22;20119;48.334;16.206;2022-07-22T04:44:52;24.90;99.90
33811;DHT22;20119;48.334;16.206;2022-07-22T04:47:21;25.20;99.90
33811;DHT22;20119;48.334;16.206;2022-07-22T04:49:50;25.80;99.90
33811;DHT22;20119;48.334;16.206;2022-07-22T04:52:18;25.70;99.90
33811;DHT22;20119;48.334;16.206;2022-07-22T04:54:46;26.00;99.90
33811;DHT22;20119;48.334;16.206;2022-07-22T04:57:15;26.30;99.90
33811;DHT22;20119;48.334;16.206;2022-07-22T04:59:43;26.20;99.90
33811;DHT22;20119;48.334;16.206;2022-07-22T05:02:10;26.50;99.90
33811;DHT22;20119;48.334;16.206;2022-07-22T05:04:38;26.50;99.90
33811;DHT22;20119;48.334;16.206;2022-07-22T05:07:06;26.80;99.90
33811;DHT22;20119;48.334;16.206;2022-07-22T05:09:33;27.40;99.90
33811;DHT22;20119;48.334;16.206;2022-07-22T05:12:01;27.50;99.90
33811;DHT22;20119;48.334;16.206;2022-07-22T05:14:28;27.40;99.90
33811;DHT22;20119;48.334;16.206;2022-07-22T05:16:56;27.80;99.90
33811;DHT22;20119;48.334;16.206;2022-07-22T05:19:23;27.90;99.90
33811;DHT22;20119;48.334;16.206;2022-07-22T05:21:51;27.90;99.90
33811;DHT22;20119;48.334;16.206;2022-07-22T05:24:20;27.70;99.90
33811;DHT22;20119;48.334;16.206;2022-07-22T05:26:48;28.30;99.90
33811;DHT22;20119;48.334;16.206;2022-07-22T05:29:16;28.30;99.90
33811;DHT22;20119;48.334;16.206;2022-07-22T05:31:44;28.40;99.90
33811;DHT22;20119;48.334;16.206;2022-07-22T05:34:11;28.70;99.90
33811;DHT22;20119;48.334;16.206;2022-07-22T05:36:38;28.70;99.90
33811;DHT22;20119;48.334;16.206;2022-07-22T05:39:07;28.40;99.90
33811;DHT22;20119;48.334;16.206;2022-07-22T05:41:40;28.20;99.90
33811;DHT22;20119;48.334;16.206;2022-07-22T05:44:07;28.50;99.90
33811;DHT22;20119;48.334;16.206;2022-07-22T05:46:34;27.60;99.90
33811;DHT22;20119;48.334;16.206;2022-07-22T05:49:02;27.30;99.90
33811;DHT22;20119;48.334;16.206;2022-07-22T05:51:29;27.50;99.90
33811;DHT22;20119;48.334;16.206;2022-07-22T05:53:58;27.30;99.90
33811;DHT22;20119;48.334;16.206;2022-07-22T05:56:27;27.00;99.90
33811;DHT22;20119;48.334;16.206;2022-07-22T05:58:56;26.80;99.90
33811;DHT22;20119;48.334;16.206;2022-07-22T06:01:23;26.70;99.90
33811;DHT22;20119;48.334;16.206;2022-07-22T06:03:51;27.20;99.90
33811;DHT22;20119;48.334;16.206;2022-07-22T06:06:18;27.60;99.90
33811;DHT22;20119;48.334;16.206;2022-07-22T06:08:47;27.40;99.90
33811;DHT22;20119;48.334;16.206;2022-07-22T06:11:14;27.90;99.90
33811;DHT22;20119;48.334;16.206;2022-07-22T06:13:42;28.50;99.90
33811;DHT22;20119;48.334;16.206;2022-07-22T06:16:12;28.10;99.90
33811;DHT22;20119;48.334;16.206;2022-07-22T06:18:39;27.90;99.90
33811;DHT22;20119;48.334;16.206;2022-07-22T06:21:06;28.20;99.90
33811;DHT22;20119;48.334;16.206;2022-07-22T06:23:35;28.20;99.90
33811;DHT22;20119;48.334;16.206;2022-07-22T06:26:03;29.30;99.90
33811;DHT22;20119;48.334;16.206;2022-07-22T06:28:31;29.10;99.90
33811;DHT22;20119;48.334;16.206;2022-07-22T06:30:58;28.30;99.90
33811;DHT22;20119;48.334;16.206;2022-07-22T06:33:26;28.30;99.90
33811;DHT22;20119;48.334;16.206;2022-07-22T06:35:55;28.70;99.90
33811;DHT22;20119;48.334;16.206;2022-07-22T06:38:23;28.90;99.90
33811;DHT22;20119;48.334;16.206;2022-07-22T06:40:51;28.70;99.90
33811;DHT22;20119;48.334;16.206;2022-07-22T06:43:18;29.10;99.90
33811;DHT22;20119;48.334;16.206;2022-07-22T06:45:45;29.20;99.90
33811;DHT22;20119;48.334;16.206;2022-07-22T06:48:12;29.40;99.90
33811;DHT22;20119;48.334;16.206;2022-07-22T06:50:42;29.30;99.90
33811;DHT22;20119;48.334;16.206;2022-07-22T06:53:09;30.50;99.90
33811;DHT22;20119;48.334;16.206;2022-07-22T06:55:37;30.40;99.90
33811;DHT22;20119;48.334;16.206;2022-07-22T07:03:10;30.90;99.90
33811;DHT22;20119;48.334;16.206;2022-07-22T07:05:38;31.10;99.90
33811;DHT22;20119;48.334;16.206;2022-07-22T07:08:06;30.90;99.90
33811;DHT22;20119;48.334;16.206;2022-07-22T07:13:08;31.00;99.90
33811;DHT22;20119;48.334;16.206;2022-07-22T07:15:36;31.50;99.90
33811;DHT22;20119;48.334;16.206;2022-07-22T07:18:03;31.40;99.90
33811;DHT22;20119;48.334;16.206;2022-07-22T07:20:32;32.00;99.90
33811;DHT22;20119;48.334;16.206;2022-07-22T07:23:01;32.40;99.90
33811;DHT22;20119;48.334;16.206;2022-07-22T07:25:30;32.30;99.90
33811;DHT22;20119;48.334;16.206;2022-07-22T07:27:58;32.20;99.90
33811;DHT22;20119;48.334;16.206;2022-07-22T07:33:01;31.60;99.90
33811;DHT22;20119;48.334;16.206;2022-07-22T07:35:28;32.30;99.90
33811;DHT22;20119;48.334;16.206;2022-07-22T07:37:56;31.60;99.90
33811;DHT22;20119;48.334;16.206;2022-07-22T07:43:01;31.30;99.90
33811;DHT22;20119;48.334;16.206;2022-07-22T07:45:28;32.20;99.90
33811;DHT22;20119;48.334;16.206;2022-07-22T07:47:56;32.40;99.90
33811;DHT22;20119;48.334;16.206;2022-07-22T07:50:24;32.50;99.90
33811;DHT22;20119;48.334;16.206;2022-07-22T07:52:52;33.10;99.90
33811;DHT22;20119;48.334;16.206;2022-07-22T07:55:20;32.40;99.90
33811;DHT22;20119;48.334;16.206;2022-07-22T07:57:54;31.70;99.90
33811;DHT22;20119;48.334;16.206;2022-07-22T08:00:25;31.40;99.90
33811;DHT22;20119;48.334;16.206;2022-07-22T08:02:54;31.90;99.90
33811;DHT22;20119;48.334;16.206;2022-07-22T08:05:24;32.00;99.90
33811;DHT22;20119;48.334;16.206;2022-07-22T08:07:52;32.60;99.90
33811;DHT22;20119;48.334;16.206;2022-07-22T08:10:20;32.90;99.90
33811;DHT22;20119;48.334;16.206;2022-07-22T08:12:48;33.10;99.90
33811;DHT22;20119;48.334;16.206;2022-07-22T08:15:16;33.30;99.90
33811;DHT22;20119;48.334;16.206;2022-07-22T08:17:47;33.60;99.90
33811;DHT22;20119;48.334;16.206;2022-07-22T08:20:14;33.30;99.90
33811;DHT22;20119;48.334;16.206;2022-07-22T08:22:41;34.20;99.90
33811;DHT22;20119;48.334;16.206;2022-07-22T08:25:09;32.70;99.90
33811;DHT22;20119;48.334;16.206;2022-07-22T08:27:37;32.30;99.90
33811;DHT22;20119;48.334;16.206;2022-07-22T08:30:06;32.80;99.90
33811;DHT22;20119;48.334;16.206;2022-07-22T08:32:34;33.10;99.90
33811;DHT22;20119;48.334;16.206;2022-07-22T08:35:04;33.20;99.90
33811;DHT22;20119;48.334;16.206;2022-07-22T08:37:32;34.00;99.90
33811;DHT22;20119;48.334;16.206;2022-07-22T08:39:59;34.00;99.90
33811;DHT22;20119;48.334;16.206;2022-07-22T08:42:29;33.80;99.90
33811;DHT22;20119;48.334;16.206;2022-07-22T08:44:57;34.30;99.90
33811;DHT22;20119;48.334;16.206;2022-07-22T08:47:24;35.30;99.90
33811;DHT22;20119;48.334;16.206;2022-07-22T08:49:51;35.40;99.90
33811;DHT22;20119;48.334;16.206;2022-07-22T08:52:20;35.30;99.40
33811;DHT22;20119;48.334;16.206;2022-07-22T08:54:48;35.30;99.90
33811;DHT22;20119;48.334;16.206;2022-07-22T08:57:17;35.20;99.90
33811;DHT22;20119;48.334;16.206;2022-07-22T08:59:51;34.00;99.50
33811;DHT22;20119;48.334;16.206;2022-07-22T09:02:19;33.50;99.90
33811;DHT22;20119;48.334;16.206;2022-07-22T09:04:53;33.20;99.60
33811;DHT22;20119;48.334;16.206;2022-07-22T09:07:33;33.00;99.10
33811;DHT22;20119;48.334;16.206;2022-07-22T09:10:02;33.30;99.80
33811;DHT22;20119;48.334;16.206;2022-07-22T09:12:32;33.50;99.60
33811;DHT22;20119;48.334;16.206;2022-07-22T09:15:03;33.50;99.00
33811;DHT22;20119;48.334;16.206;2022-07-22T09:17:32;32.60;99.90
33811;DHT22;20119;48.334;16.206;2022-07-22T09:20:03;33.00;99.90
33811;DHT22;20119;48.334;16.206;2022-07-22T09:22:35;33.30;99.90
33811;DHT22;20119;48.334;16.206;2022-07-22T09:25:19;33.80;99.40
33811;DHT22;20119;48.334;16.206;2022-07-22T09:27:48;33.40;99.90
33811;DHT22;20119;48.334;16.206;2022-07-22T09:30:18;33.80;99.90
33811;DHT22;20119;48.334;16.206;2022-07-22T09:32:46;33.80;99.10
33811;DHT22;20119;48.334;16.206;2022-07-22T09:35:14;34.90;98.60
33811;DHT22;20119;48.334;16.206;2022-07-22T09:37:50;34.60;98.00
33811;DHT22;20119;48.334;16.206;2022-07-22T09:40:20;34.30;97.80
33811;DHT22;20119;48.334;16.206;2022-07-22T09:42:51;34.50;97.80
33811;DHT22;20119;48.334;16.206;2022-07-22T09:45:22;34.10;97.00
33811;DHT22;20119;48.334;16.206;2022-07-22T09:47:50;33.80;96.40
33811;DHT22;20119;48.334;16.206;2022-07-22T09:50:22;33.20;98.20
33811;DHT22;20119;48.334;16.206;2022-07-22T09:52:53;33.60;97.40
33811;DHT22;20119;48.334;16.206;2022-07-22T09:55:23;33.50;97.70
33811;DHT22;20119;48.334;16.206;2022-07-22T09:57:52;33.40;98.30
33811;DHT22;20119;48.334;16.206;2022-07-22T10:00:21;33.70;99.30
33811;DHT22;20119;48.334;16.206;2022-07-22T10:02:50;33.50;97.80
33811;DHT22;20119;48.334;16.206;2022-07-22T10:05:19;32.90;97.30
33811;DHT22;20119;48.334;16.206;2022-07-22T10:07:48;33.50;97.60
33811;DHT22;20119;48.334;16.206;2022-07-22T10:10:19;33.90;97.30
33811;DHT22;20119;48.334;16.206;2022-07-22T10:12:49;33.20;98.50
33811;DHT22;20119;48.334;16.206;2022-07-22T10:15:18;33.00;98.20
33811;DHT22;20119;48.334;16.206;2022-07-22T10:17:48;33.50;98.30
33811;DHT22;20119;48.334;16.206;2022-07-22T10:20:17;32.50;99.60
33811;DHT22;20119;48.334;16.206;2022-07-22T10:22:53;32.60;99.10
33811;DHT22;20119;48.334;16.206;2022-07-22T10:25:55;33.00;98.10
33811;DHT22;20119;48.334;16.206;2022-07-22T10:28:26;32.70;96.50
33811;DHT22;20119;48.334;16.206;2022-07-22T10:30:54;32.80;97.80
33811;DHT22;20119;48.334;16.206;2022-07-22T10:33:35;33.00;96.50
33811;DHT22;20119;48.334;16.206;2022-07-22T10:36:04;32.60;96.80
33811;DHT22;20119;48.334;16.206;2022-07-22T10:38:32;32.10;97.20
33811;DHT22;20119;48.334;16.206;2022-07-22T10:41:05;32.80;98.60
33811;DHT22;20119;48.334;16.206;2022-07-22T10:43:46;33.20;99.30
33811;DHT22;20119;48.334;16.206;2022-07-22T10:46:15;33.00;96.50
33811;DHT22;20119;48.334;16.206;2022-07-22T10:48:46;33.30;97.00
33811;DHT22;20119;48.334;16.206;2022-07-22T10:51:16;33.10;97.90
33811;DHT22;20119;48.334;16.206;2022-07-22T10:53:49;32.70;96.40
33811;DHT22;20119;48.334;16.206;2022-07-22T10:56:23;33.10;97.00
33811;DHT22;20119;48.334;16.206;2022-07-22T10:58:54;33.20;97.30
33811;DHT22;20119;48.334;16.206;2022-07-22T11:01:24;33.40;96.00
33811;DHT22;20119;48.334;16.206;2022-07-22T11:03:52;33.10;96.10
33811;DHT22;20119;48.334;16.206;2022-07-22T11:08:56;32.70;96.30
33811;DHT22;20119;48.334;16.206;2022-07-22T11:11:40;32.50;94.90
33811;DHT22;20119;48.334;16.206;2022-07-22T11:14:16;32.70;95.90
33811;DHT22;20119;48.334;16.206;2022-07-22T11:16:45;32.80;95.40
33811;DHT22;20119;48.334;16.206;2022-07-22T11:19:14;33.10;95.10
33811;DHT22;20119;48.334;16.206;2022-07-22T11:21:49;32.90;92.20
33811;DHT22;20119;48.334;16.206;2022-07-22T11:24:17;32.90;93.30
33811;DHT22;20119;48.334;16.206;2022-07-22T11:26:48;33.10;94.20
33811;DHT22;20119;48.334;16.206;2022-07-22T11:29:17;33.00;93.50
33811;DHT22;20119;48.334;16.206;2022-07-22T11:31:45;32.80;92.60
33811;DHT22;20119;48.334;16.206;2022-07-22T11:34:15;32.70;93.40
33811;DHT22;20119;48.334;16.206;2022-07-22T11:36:44;32.60;92.90
33811;DHT22;20119;48.334;16.206;2022-07-22T11:39:13;32.50;92.70
33811;DHT22;20119;48.334;16.206;2022-07-22T11:41:41;32.80;93.60
33811;DHT22;20119;48.334;16.206;2022-07-22T11:44:11;32.60;93.00
33811;DHT22;20119;48.334;16.206;2022-07-22T11:46:40;33.10;94.80
33811;DHT22;20119;48.334;16.206;2022-07-22T11:49:08;33.70;94.20
33811;DHT22;20119;48.334;16.206;2022-07-22T11:51:37;33.60;92.80
33811;DHT22;20119;48.334;16.206;2022-07-22T11:54:05;33.80;92.60
33811;DHT22;20119;48.334;16.206;2022-07-22T11:56:33;33.50;91.50
33811;DHT22;20119;48.334;16.206;2022-07-22T11:59:01;32.70;91.30
33811;DHT22;20119;48.334;16.206;2022-07-22T12:01:49;32.80;92.80
33811;DHT22;20119;48.334;16.206;2022-07-22T12:04:20;32.80;93.30
33811;DHT22;20119;48.334;16.206;2022-07-22T12:06:49;32.50;92.70
33811;DHT22;20119;48.334;16.206;2022-07-22T12:09:21;32.40;92.90
33811;DHT22;20119;48.334;16.206;2022-07-22T12:11:50;32.40;92.30
33811;DHT22;20119;48.334;16.206;2022-07-22T12:14:20;32.50;93.10
33811;DHT22;20119;48.334;16.206;2022-07-22T12:16:56;32.50;93.40
33811;DHT22;20119;48.334;16.206;2022-07-22T12:19:26;32.50;92.80
33811;DHT22;20119;48.334;16.206;2022-07-22T12:21:56;32.40;92.80
33811;DHT22;20119;48.334;16.206;2022-07-22T12:24:28;32.80;92.80
33811;DHT22;20119;48.334;16.206;2022-07-22T12:29:26;32.60;92.50
33811;DHT22;20119;48.334;16.206;2022-07-22T12:31:59;32.80;93.60
33811;DHT22;20119;48.334;16.206;2022-07-22T12:34:31;32.70;92.20
33811;DHT22;20119;48.334;16.206;2022-07-22T12:37:00;32.60;91.70
33811;DHT22;20119;48.334;16.206;2022-07-22T12:39:29;32.60;93.10
33811;DHT22;20119;48.334;16.206;2022-07-22T12:41:57;32.80;93.40
33811;DHT22;20119;48.334;16.206;2022-07-22T12:44:25;32.80;92.20
33811;DHT22;20119;48.334;16.206;2022-07-22T12:46:53;32.50;93.30
33811;DHT22;20119;48.334;16.206;2022-07-22T12:49:24;32.70;92.70
33811;DHT22;20119;48.334;16.206;2022-07-22T12:52:11;32.80;91.50
33811;DHT22;20119;48.334;16.206;2022-07-22T12:54:40;33.10;92.40
33811;DHT22;20119;48.334;16.206;2022-07-22T12:57:16;33.10;92.40
33811;DHT22;20119;48.334;16.206;2022-07-22T13:02:18;33.00;92.50
33811;DHT22;20119;48.334;16.206;2022-07-22T13:04:48;33.30;94.10
33811;DHT22;20119;48.334;16.206;2022-07-22T13:07:15;33.10;92.80
33811;DHT22;20119;48.334;16.206;2022-07-22T13:09:44;33.40;93.40
33811;DHT22;20119;48.334;16.206;2022-07-22T13:12:12;33.60;93.00
33811;DHT22;20119;48.334;16.206;2022-07-22T13:14:40;33.60;92.90
33811;DHT22;20119;48.334;16.206;2022-07-22T13:17:09;33.90;91.70
33811;DHT22;20119;48.334;16.206;2022-07-22T13:24:40;33.00;92.20
33811;DHT22;20119;48.334;16.206;2022-07-22T13:27:08;33.10;92.90
33811;DHT22;20119;48.334;16.206;2022-07-22T13:29:35;33.00;92.10
33811;DHT22;20119;48.334;16.206;2022-07-22T13:32:02;33.10;91.90
33811;DHT22;20119;48.334;16.206;2022-07-22T13:34:31;33.40;92.10
33811;DHT22;20119;48.334;16.206;2022-07-22T13:37:00;33.60;92.60
33811;DHT22;20119;48.334;16.206;2022-07-22T13:39:28;33.30;92.90
33811;DHT22;20119;48.334;16.206;2022-07-22T13:41:57;33.20;94.20
33811;DHT22;20119;48.334;16.206;2022-07-22T13:44:25;33.50;92.60
33811;DHT22;20119;48.334;16.206;2022-07-22T13:46:52;33.50;92.20
33811;DHT22;20119;48.334;16.206;2022-07-22T13:49:21;33.60;92.80
33811;DHT22;20119;48.334;16.206;2022-07-22T13:51:48;33.50;93.70
33811;DHT22;20119;48.334;16.206;2022-07-22T13:54:16;33.50;93.00
33811;DHT22;20119;48.334;16.206;2022-07-22T13:56:43;33.30;92.80
33811;DHT22;20119;48.334;16.206;2022-07-22T13:59:15;33.60;92.20
33811;DHT22;20119;48.334;16.206;2022-07-22T14:01:43;33.80;92.20
33811;DHT22;20119;48.334;16.206;2022-07-22T14:04:11;33.60;93.40
33811;DHT22;20119;48.334;16.206;2022-07-22T14:06:38;33.80;92.80
33811;DHT22;20119;48.334;16.206;2022-07-22T14:09:07;33.50;92.00
33811;DHT22;20119;48.334;16.206;2022-07-22T14:11:34;33.60;93.10
33811;DHT22;20119;48.334;16.206;2022-07-22T14:14:02;33.50;93.00
33811;DHT22;20119;48.334;16.206;2022-07-22T14:16:33;33.50;93.10
33811;DHT22;20119;48.334;16.206;2022-07-22T14:19:03;33.60;94.20
33811;DHT22;20119;48.334;16.206;2022-07-22T14:21:31;33.60;92.80
33811;DHT22;20119;48.334;16.206;2022-07-22T14:23:58;33.50;93.50
33811;DHT22;20119;48.334;16.206;2022-07-22T14:26:25;32.80;92.60
33811;DHT22;20119;48.334;16.206;2022-07-22T14:33:58;32.90;93.10
33811;DHT22;20119;48.334;16.206;2022-07-22T14:36:27;32.90;94.00
33811;DHT22;20119;48.334;16.206;2022-07-22T14:41:25;33.00;93.70
33811;DHT22;20119;48.334;16.206;2022-07-22T14:46:29;33.00;94.70
33811;DHT22;20119;48.334;16.206;2022-07-22T14:48:59;32.90;92.70
33811;DHT22;20119;48.334;16.206;2022-07-22T14:51:28;32.90;93.80
33811;DHT22;20119;48.334;16.206;2022-07-22T14:53:56;33.00;93.80
33811;DHT22;20119;48.334;16.206;2022-07-22T14:56:23;32.90;92.90
33811;DHT22;20119;48.334;16.206;2022-07-22T14:58:51;32.70;92.90
33811;DHT22;20119;48.334;16.206;2022-07-22T15:01:19;32.60;94.00
33811;DHT22;20119;48.334;16.206;2022-07-22T15:03:46;32.70;94.30
33811;DHT22;20119;48.334;16.206;2022-07-22T15:06:14;32.80;94.40
33811;DHT22;20119;48.334;16.206;2022-07-22T15:16:26;32.90;95.00
33811;DHT22;20119;48.334;16.206;2022-07-22T15:18:55;32.90;94.90
33811;DHT22;20119;48.334;16.206;2022-07-22T15:21:23;32.90;94.50
33811;DHT22;20119;48.334;16.206;2022-07-22T15:23:50;33.00;94.60
33811;DHT22;20119;48.334;16.206;2022-07-22T15:31:21;32.80;92.80
33811;DHT22;20119;48.334;16.206;2022-07-22T15:33:59;32.70;93.30
33811;DHT22;20119;48.334;16.206;2022-07-22T15:36:28;32.70;93.70
33811;DHT22;20119;48.334;16.206;2022-07-22T15:38:55;32.80;94.00
33811;DHT22;20119;48.334;16.206;2022-07-22T15:41:22;32.80;93.90
33811;DHT22;20119;48.334;16.206;2022-07-22T15:43:49;32.70;94.80
33811;DHT22;20119;48.334;16.206;2022-07-22T15:46:17;32.60;93.80
33811;DHT22;20119;48.334;16.206;2022-07-22T15:48:44;32.60;94.10
33811;DHT22;20119;48.334;16.206;2022-07-22T15:51:11;32.60;93.90
33811;DHT22;20119;48.334;16.206;2022-07-22T15:53:41;32.50;93.70
33811;DHT22;20119;48.334;16.206;2022-07-22T15:56:09;32.50;93.80
33811;DHT22;20119;48.334;16.206;2022-07-22T15:58:38;32.40;93.50
33811;DHT22;20119;48.334;16.206;2022-07-22T16:01:23;32.40;94.70
33811;DHT22;20119;48.334;16.206;2022-07-22T16:03:50;32.40;94.50
33811;DHT22;20119;48.334;16.206;2022-07-22T16:06:18;32.50;95.40
33811;DHT22;20119;48.334;16.206;2022-07-22T16:08:46;32.40;95.70
33811;DHT22;20119;48.334;16.206;2022-07-22T16:11:16;32.40;95.60
33811;DHT22;20119;48.334;16.206;2022-07-22T16:13:43;32.40;95.80
33811;DHT22;20119;48.334;16.206;2022-07-22T16:16:12;32.40;95.00
33811;DHT22;20119;48.334;16.206;2022-07-22T16:18:40;32.40;95.60
33811;DHT22;20119;48.334;16.206;2022-07-22T16:21:08;32.40;95.50
33811;DHT22;20119;48.334;16.206;2022-07-22T16:23:36;32.40;95.50
33811;DHT22;20119;48.334;16.206;2022-07-22T16:26:28;32.30;96.40
33811;DHT22;20119;48.334;16.206;2022-07-22T16:28:54;32.20;96.20
33811;DHT22;20119;48.334;16.206;2022-07-22T16:31:22;32.20;96.90
33811;DHT22;20119;48.334;16.206;2022-07-22T16:36:25;32.20;96.20
33811;DHT22;20119;48.334;16.206;2022-07-22T16:38:52;32.20;97.00
33811;DHT22;20119;48.334;16.206;2022-07-22T16:41:21;32.20;97.50
33811;DHT22;20119;48.334;16.206;2022-07-22T16:43:50;32.20;97.20
33811;DHT22;20119;48.334;16.206;2022-07-22T16:46:17;32.30;95.60
33811;DHT22;20119;48.334;16.206;2022-07-22T16:48:45;32.20;97.30
33811;DHT22;20119;48.334;16.206;2022-07-22T16:51:12;32.00;98.10
33811;DHT22;20119;48.334;16.206;2022-07-22T16:53:39;32.00;97.30
33811;DHT22;20119;48.334;16.206;2022-07-22T16:56:07;31.90;97.80
33811;DHT22;20119;48.334;16.206;2022-07-22T16:58:34;31.90;97.90
33811;DHT22;20119;48.334;16.206;2022-07-22T17:01:03;31.80;97.40
33811;DHT22;20119;48.334;16.206;2022-07-22T17:03:31;31.80;98.00
33811;DHT22;20119;48.334;16.206;2022-07-22T17:05:58;31.70;97.90
33811;DHT22;20119;48.334;16.206;2022-07-22T17:08:26;31.70;98.70
33811;DHT22;20119;48.334;16.206;2022-07-22T17:10:53;31.70;98.60
33811;DHT22;20119;48.334;16.206;2022-07-22T17:13:21;31.60;98.70
33811;DHT22;20119;48.334;16.206;2022-07-22T17:15:50;31.60;98.90
33811;DHT22;20119;48.334;16.206;2022-07-22T17:18:20;31.40;99.20
33811;DHT22;20119;48.334;16.206;2022-07-22T17:20:47;31.30;99.80
33811;DHT22;20119;48.334;16.206;2022-07-22T17:25:44;31.20;99.90
33811;DHT22;20119;48.334;16.206;2022-07-22T17:28:11;31.10;99.90
33811;DHT22;20119;48.334;16.206;2022-07-22T17:30:40;31.00;99.90
33811;DHT22;20119;48.334;16.206;2022-07-22T17:33:11;31.00;99.90
33811;DHT22;20119;48.334;16.206;2022-07-22T17:35:39;31.00;99.90
33811;DHT22;20119;48.334;16.206;2022-07-22T17:38:07;30.80;99.90